sensor_id;sensor_type;location;lat;lon;timestamp;pressure;altitude;pressure_sealevel;temperature;humidity
21900;BME280;11114;50.658;12.704;2022-07-03T00:00:04;96464.38;;;18.23;49.49
21900;BME280;11114;50.658;12.704;2022-07-03T00:02:37;96465.94;;;18.18;49.48
21900;BME280;11114;50.658;12.704;2022-07-03T00:05:05;96457.22;;;18.17;49.24
21900;BME280;11114;50.658;12.704;2022-07-03T00:07:32;96462.09;;;18.14;49.60
21900;BME280;11114;50.658;12.704;2022-07-03T00:09:58;96458.59;;;18.13;49.67
21900;BME280;11114;50.658;12.704;2022-07-03T00:12:25;96458.81;;;18.12;49.56
21900;BME280;11114;50.658;12.704;2022-07-03T00:14:52;96463.09;;;18.13;49.82
21900;BME280;11114;50.658;12.704;2022-07-03T00:17:19;96467.13;;;18.09;49.75
21900;BME280;11114;50.658;12.704;2022-07-03T00:19:45;96455.97;;;18.07;49.87
21900;BME280;11114;50.658;12.704;2022-07-03T00:22:13;96455.53;;;18.10;49.85
21900;BME280;11114;50.658;12.704;2022-07-03T00:24:49;96447.81;;;18.09;50.24
21900;BME280;11114;50.658;12.704;2022-07-03T00:27:17;96439.88;;;18.02;49.99
21900;BME280;11114;50.658;12.704;2022-07-03T00:29:45;96452.88;;;18.04;50.23
21900;BME280;11114;50.658;12.704;2022-07-03T00:32:15;96451.06;;;18.04;50.06
21900;BME280;11114;50.658;12.704;2022-07-03T00:34:46;96442.31;;;18.04;50.18
21900;BME280;11114;50.658;12.704;2022-07-03T00:37:14;96448.00;;;18.01;50.11
21900;BME280;11114;50.658;12.704;2022-07-03T00:39:42;96444.13;;;18.03;49.98
21900;BME280;11114;50.658;12.704;2022-07-03T00:42:10;96441.09;;;18.00;50.19
21900;BME280;11114;50.658;12.704;2022-07-03T00:44:54;96443.31;;;17.96;50.71
21900;BME280;11114;50.658;12.704;2022-07-03T00:47:23;96440.63;;;17.90;50.36
21900;BME280;11114;50.658;12.704;2022-07-03T00:49:52;96436.78;;;17.92;50.40
21900;BME280;11114;50.658;12.704;2022-07-03T00:52:21;96437.41;;;17.94;50.46
21900;BME280;11114;50.658;12.704;2022-07-03T00:54:58;96433.53;;;17.97;50.47
21900;BME280;11114;50.658;12.704;2022-07-03T00:57:28;96433.13;;;17.93;50.56
21900;BME280;11114;50.658;12.704;2022-07-03T00:59:56;96430.06;;;17.90;50.61
21900;BME280;11114;50.658;12.704;2022-07-03T01:02:38;96427.03;;;17.99;50.27
21900;BME280;11114;50.658;12.704;2022-07-03T01:05:26;96427.72;;;18.14;49.92
21900;BME280;11114;50.658;12.704;2022-07-03T01:22:48;96422.41;;;18.08;50.45
21900;BME280;11114;50.658;12.704;2022-07-03T01:30:06;96406.56;;;18.08;49.96
21900;BME280;11114;50.658;12.704;2022-07-03T01:32:41;96405.34;;;18.10;50.07
21900;BME280;11114;50.658;12.704;2022-07-03T01:35:12;96398.63;;;18.08;49.88
21900;BME280;11114;50.658;12.704;2022-07-03T01:37:39;96401.47;;;18.00;50.30
21900;BME280;11114;50.658;12.704;2022-07-03T01:40:08;96393.75;;;17.98;50.09
21900;BME280;11114;50.658;12.704;2022-07-03T01:42:36;96384.56;;;17.94;50.28
21900;BME280;11114;50.658;12.704;2022-07-03T01:45:09;96383.13;;;17.92;50.33
21900;BME280;11114;50.658;12.704;2022-07-03T01:47:40;96377.22;;;17.90;50.37
21900;BME280;11114;50.658;12.704;2022-07-03T01:50:11;96377.66;;;17.93;50.25
21900;BME280;11114;50.658;12.704;2022-07-03T01:52:43;96372.38;;;17.93;50.05
21900;BME280;11114;50.658;12.704;2022-07-03T01:55:13;96364.44;;;17.93;50.04
21900;BME280;11114;50.658;12.704;2022-07-03T01:57:50;96369.72;;;17.93;50.26
21900;BME280;11114;50.658;12.704;2022-07-03T02:00:19;96366.47;;;17.85;50.20
21900;BME280;11114;50.658;12.704;2022-07-03T02:05:38;96371.28;;;17.75;50.67
21900;BME280;11114;50.658;12.704;2022-07-03T02:08:18;96363.16;;;17.76;50.63
21900;BME280;11114;50.658;12.704;2022-07-03T02:13:38;96363.78;;;17.78;50.42
21900;BME280;11114;50.658;12.704;2022-07-03T02:16:08;96367.63;;;17.82;50.53
21900;BME280;11114;50.658;12.704;2022-07-03T02:18:37;96371.53;;;17.86;50.35
21900;BME280;11114;50.658;12.704;2022-07-03T02:21:17;96376.59;;;17.88;50.33
21900;BME280;11114;50.658;12.704;2022-07-03T02:24:13;96371.97;;;17.96;50.28
21900;BME280;11114;50.658;12.704;2022-07-03T02:26:46;96368.91;;;17.99;49.82
21900;BME280;11114;50.658;12.704;2022-07-03T02:29:17;96366.09;;;18.01;49.70
21900;BME280;11114;50.658;12.704;2022-07-03T02:31:57;96371.38;;;18.01;49.98
21900;BME280;11114;50.658;12.704;2022-07-03T02:34:27;96378.28;;;18.08;49.66
21900;BME280;11114;50.658;12.704;2022-07-03T02:36:59;96370.19;;;18.10;49.60
21900;BME280;11114;50.658;12.704;2022-07-03T02:39:36;96368.34;;;18.10;49.48
21900;BME280;11114;50.658;12.704;2022-07-03T02:42:08;96362.91;;;18.12;49.30
21900;BME280;11114;50.658;12.704;2022-07-03T02:44:45;96364.94;;;18.16;49.61
21900;BME280;11114;50.658;12.704;2022-07-03T02:50:21;96363.06;;;18.10;49.40
21900;BME280;11114;50.658;12.704;2022-07-03T02:55:39;96364.25;;;18.01;49.49
21900;BME280;11114;50.658;12.704;2022-07-03T03:01:30;96358.97;;;18.01;49.63
21900;BME280;11114;50.658;12.704;2022-07-03T03:06:41;96362.06;;;18.11;49.67
21900;BME280;11114;50.658;12.704;2022-07-03T03:09:14;96370.78;;;18.05;49.60
21900;BME280;11114;50.658;12.704;2022-07-03T03:11:42;96365.50;;;18.05;49.45
21900;BME280;11114;50.658;12.704;2022-07-03T03:14:19;96362.44;;;18.08;49.49
21900;BME280;11114;50.658;12.704;2022-07-03T03:16:51;96366.34;;;18.12;49.46
21900;BME280;11114;50.658;12.704;2022-07-03T03:19:22;96364.69;;;18.11;49.46
21900;BME280;11114;50.658;12.704;2022-07-03T03:21:57;96359.38;;;18.05;49.69
21900;BME280;11114;50.658;12.704;2022-07-03T03:24:25;96364.91;;;18.10;49.59
21900;BME280;11114;50.658;12.704;2022-07-03T03:26:53;96361.22;;;18.04;49.70
21900;BME280;11114;50.658;12.704;2022-07-03T03:29:20;96360.84;;;18.07;49.72
21900;BME280;11114;50.658;12.704;2022-07-03T03:31:47;96362.28;;;18.10;50.07
21900;BME280;11114;50.658;12.704;2022-07-03T03:34:15;96358.41;;;18.12;49.80
21900;BME280;11114;50.658;12.704;2022-07-03T03:36:42;96358.03;;;18.15;49.59
21900;BME280;11114;50.658;12.704;2022-07-03T03:39:08;96353.16;;;18.18;49.72
21900;BME280;11114;50.658;12.704;2022-07-03T03:41:35;96355.41;;;18.21;49.49
21900;BME280;11114;50.658;12.704;2022-07-03T03:44:02;96347.91;;;18.25;49.40
21900;BME280;11114;50.658;12.704;2022-07-03T03:46:29;96347.50;;;18.28;49.52
21900;BME280;11114;50.658;12.704;2022-07-03T03:48:56;96361.34;;;18.30;49.56
21900;BME280;11114;50.658;12.704;2022-07-03T03:51:24;96355.84;;;18.25;49.54
21900;BME280;11114;50.658;12.704;2022-07-03T03:53:51;96351.56;;;18.24;49.72
21900;BME280;11114;50.658;12.704;2022-07-03T03:56:18;96352.78;;;18.28;49.75
21900;BME280;11114;50.658;12.704;2022-07-03T03:58:45;96351.38;;;18.32;49.58
21900;BME280;11114;50.658;12.704;2022-07-03T04:01:12;96354.22;;;18.37;49.42
21900;BME280;11114;50.658;12.704;2022-07-03T04:03:39;96356.47;;;18.40;49.28
21900;BME280;11114;50.658;12.704;2022-07-03T04:06:07;96356.47;;;18.40;49.62
21900;BME280;11114;50.658;12.704;2022-07-03T04:08:34;96349.31;;;18.34;49.69
21900;BME280;11114;50.658;12.704;2022-07-03T04:11:01;96357.06;;;18.35;49.75
21900;BME280;11114;50.658;12.704;2022-07-03T04:13:28;96356.66;;;18.38;49.95
21900;BME280;11114;50.658;12.704;2022-07-03T04:15:54;96350.75;;;18.43;49.92
21900;BME280;11114;50.658;12.704;2022-07-03T04:18:22;96353.63;;;18.48;49.43
21900;BME280;11114;50.658;12.704;2022-07-03T04:20:49;96346.53;;;18.55;49.59
21900;BME280;11114;50.658;12.704;2022-07-03T04:23:16;96345.28;;;18.57;49.40
21900;BME280;11114;50.658;12.704;2022-07-03T04:25:43;96349.56;;;18.58;49.70
21900;BME280;11114;50.658;12.704;2022-07-03T04:28:10;96356.09;;;18.56;49.71
21900;BME280;11114;50.658;12.704;2022-07-03T04:30:47;96354.69;;;18.60;49.80
21900;BME280;11114;50.658;12.704;2022-07-03T04:33:14;96356.50;;;18.66;49.72
21900;BME280;11114;50.658;12.704;2022-07-03T04:35:41;96356.09;;;18.69;49.83
21900;BME280;11114;50.658;12.704;2022-07-03T04:38:08;96356.69;;;18.71;49.86
21900;BME280;11114;50.658;12.704;2022-07-03T04:40:35;96345.72;;;18.74;49.56
21900;BME280;11114;50.658;12.704;2022-07-03T04:43:02;96356.50;;;18.79;49.85
21900;BME280;11114;50.658;12.704;2022-07-03T04:45:30;96353.25;;;18.77;50.02
21900;BME280;11114;50.658;12.704;2022-07-03T04:47:57;96348.78;;;18.77;49.89
21900;BME280;11114;50.658;12.704;2022-07-03T04:50:24;96353.84;;;18.79;50.12
21900;BME280;11114;50.658;12.704;2022-07-03T04:52:52;96353.06;;;18.85;49.79
21900;BME280;11114;50.658;12.704;2022-07-03T04:55:19;96348.78;;;18.90;49.91
21900;BME280;11114;50.658;12.704;2022-07-03T04:57:47;96347.34;;;18.94;50.01
21900;BME280;11114;50.658;12.704;2022-07-03T05:00:14;96352.41;;;18.96;49.94
21900;BME280;11114;50.658;12.704;2022-07-03T05:02:41;96358.94;;;18.99;49.86
21900;BME280;11114;50.658;12.704;2022-07-03T05:05:08;96347.53;;;19.05;50.16
21900;BME280;11114;50.658;12.704;2022-07-03T05:07:35;96357.09;;;19.06;50.28
21900;BME280;11114;50.658;12.704;2022-07-03T05:10:03;96355.50;;;19.12;50.24
21900;BME280;11114;50.658;12.704;2022-07-03T05:12:30;96355.09;;;19.15;49.93
21900;BME280;11114;50.658;12.704;2022-07-03T05:14:56;96353.47;;;19.20;50.23
21900;BME280;11114;50.658;12.704;2022-07-03T05:17:24;96351.63;;;19.21;50.26
21900;BME280;11114;50.658;12.704;2022-07-03T05:19:51;96358.94;;;19.25;49.89
21900;BME280;11114;50.658;12.704;2022-07-03T05:22:36;96349.16;;;19.32;50.23
21900;BME280;11114;50.658;12.704;2022-07-03T05:25:04;96348.34;;;19.38;50.33
21900;BME280;11114;50.658;12.704;2022-07-03T05:27:31;96354.03;;;19.42;50.30
21900;BME280;11114;50.658;12.704;2022-07-03T05:29:58;96362.56;;;19.44;50.39
21900;BME280;11114;50.658;12.704;2022-07-03T05:32:24;96355.63;;;19.49;50.66
21900;BME280;11114;50.658;12.704;2022-07-03T05:34:52;96365.41;;;19.55;50.43
21900;BME280;11114;50.658;12.704;2022-07-03T05:37:19;96359.25;;;19.61;50.21
21900;BME280;11114;50.658;12.704;2022-07-03T05:39:46;96367.38;;;19.66;50.29
21900;BME280;11114;50.658;12.704;2022-07-03T05:42:13;96357.59;;;19.73;50.18
21900;BME280;11114;50.658;12.704;2022-07-03T05:44:40;96362.47;;;19.76;49.94
21900;BME280;11114;50.658;12.704;2022-07-03T05:47:07;96363.69;;;19.80;49.91
21900;BME280;11114;50.658;12.704;2022-07-03T05:49:34;96362.63;;;19.87;50.01
21900;BME280;11114;50.658;12.704;2022-07-03T05:52:00;96368.13;;;19.92;50.11
21900;BME280;11114;50.658;12.704;2022-07-03T05:54:28;96368.13;;;19.99;50.02
21900;BME280;11114;50.658;12.704;2022-07-03T05:56:55;96368.91;;;20.06;50.20
21900;BME280;11114;50.658;12.704;2022-07-03T05:59:22;96364.38;;;20.13;50.37
21900;BME280;11114;50.658;12.704;2022-07-03T06:01:49;96358.03;;;20.20;50.18
21900;BME280;11114;50.658;12.704;2022-07-03T06:04:16;96363.31;;;20.27;49.94
21900;BME280;11114;50.658;12.704;2022-07-03T06:06:43;96360.19;;;20.36;49.56
21900;BME280;11114;50.658;12.704;2022-07-03T06:09:10;96362.56;;;20.44;49.60
21900;BME280;11114;50.658;12.704;2022-07-03T06:11:42;96363.34;;;20.51;49.50
21900;BME280;11114;50.658;12.704;2022-07-03T06:14:09;96363.91;;;20.60;49.51
21900;BME280;11114;50.658;12.704;2022-07-03T06:16:36;96367.28;;;20.73;49.27
21900;BME280;11114;50.658;12.704;2022-07-03T06:19:19;96363.53;;;20.87;49.37
21900;BME280;11114;50.658;12.704;2022-07-03T06:21:54;96354.69;;;21.17;48.78
21900;BME280;11114;50.658;12.704;2022-07-03T06:24:21;96354.69;;;22.95;45.10
21900;BME280;11114;50.658;12.704;2022-07-03T06:26:47;96340.06;;;25.82;39.75
21900;BME280;11114;50.658;12.704;2022-07-03T06:29:14;96337.28;;;28.08;36.40
21900;BME280;11114;50.658;12.704;2022-07-03T06:31:41;96325.78;;;30.31;34.17
21900;BME280;11114;50.658;12.704;2022-07-03T06:34:08;96331.22;;;32.26;31.73
21900;BME280;11114;50.658;12.704;2022-07-03T06:36:35;96329.56;;;33.72;30.27
21900;BME280;11114;50.658;12.704;2022-07-03T06:39:01;96325.69;;;34.94;28.12
21900;BME280;11114;50.658;12.704;2022-07-03T06:41:28;96325.25;;;35.88;27.11
21900;BME280;11114;50.658;12.704;2022-07-03T06:43:55;96327.03;;;36.87;25.82
21900;BME280;11114;50.658;12.704;2022-07-03T06:46:22;96323.56;;;37.37;24.84
21900;BME280;11114;50.658;12.704;2022-07-03T06:48:50;96323.69;;;37.15;25.32
21900;BME280;11114;50.658;12.704;2022-07-03T06:51:16;96324.97;;;37.26;23.31
21900;BME280;11114;50.658;12.704;2022-07-03T06:53:43;96325.13;;;36.96;24.13
21900;BME280;11114;50.658;12.704;2022-07-03T06:56:10;96317.75;;;37.55;23.47
21900;BME280;11114;50.658;12.704;2022-07-03T06:58:37;96318.94;;;38.58;22.27
21900;BME280;11114;50.658;12.704;2022-07-03T07:01:03;96320.66;;;38.42;22.52
21900;BME280;11114;50.658;12.704;2022-07-03T07:03:30;96317.56;;;38.80;22.07
21900;BME280;11114;50.658;12.704;2022-07-03T07:05:57;96318.34;;;39.42;21.57
21900;BME280;11114;50.658;12.704;2022-07-03T07:08:24;96316.47;;;39.55;21.53
21900;BME280;11114;50.658;12.704;2022-07-03T07:10:51;96313.75;;;39.99;21.00
21900;BME280;11114;50.658;12.704;2022-07-03T07:13:18;96313.09;;;39.69;20.50
21900;BME280;11114;50.658;12.704;2022-07-03T07:15:48;96309.09;;;40.23;20.80
21900;BME280;11114;50.658;12.704;2022-07-03T07:18:15;96309.56;;;39.69;20.68
21900;BME280;11114;50.658;12.704;2022-07-03T07:20:42;96303.97;;;40.69;20.64
21900;BME280;11114;50.658;12.704;2022-07-03T07:23:08;96308.91;;;41.42;19.67
21900;BME280;11114;50.658;12.704;2022-07-03T07:25:36;96310.25;;;40.46;19.25
21900;BME280;11114;50.658;12.704;2022-07-03T07:28:09;96308.13;;;39.83;20.04
21900;BME280;11114;50.658;12.704;2022-07-03T07:30:36;96323.59;;;40.12;19.99
21900;BME280;11114;50.658;12.704;2022-07-03T07:33:07;96309.03;;;40.32;20.27
21900;BME280;11114;50.658;12.704;2022-07-03T07:35:34;96303.63;;;40.59;19.87
21900;BME280;11114;50.658;12.704;2022-07-03T07:38:02;96299.81;;;40.99;19.93
21900;BME280;11114;50.658;12.704;2022-07-03T07:40:34;96307.09;;;41.46;18.78
21900;BME280;11114;50.658;12.704;2022-07-03T07:43:00;96308.34;;;41.22;19.09
21900;BME280;11114;50.658;12.704;2022-07-03T07:45:27;96305.03;;;41.04;18.82
21900;BME280;11114;50.658;12.704;2022-07-03T07:47:54;96308.16;;;41.30;19.30
21900;BME280;11114;50.658;12.704;2022-07-03T07:50:21;96309.44;;;40.69;18.92
21900;BME280;11114;50.658;12.704;2022-07-03T07:52:48;96298.13;;;40.11;20.42
21900;BME280;11114;50.658;12.704;2022-07-03T07:55:15;96294.66;;;40.47;19.92
21900;BME280;11114;50.658;12.704;2022-07-03T07:57:42;96303.31;;;41.24;19.71
21900;BME280;11114;50.658;12.704;2022-07-03T08:00:19;96298.53;;;42.06;18.57
21900;BME280;11114;50.658;12.704;2022-07-03T08:02:46;96296.25;;;38.94;20.35
21900;BME280;11114;50.658;12.704;2022-07-03T08:05:32;96308.81;;;36.96;21.13
21900;BME280;11114;50.658;12.704;2022-07-03T08:08:04;96309.44;;;37.09;21.95
21900;BME280;11114;50.658;12.704;2022-07-03T08:10:44;96309.44;;;36.93;21.94
21900;BME280;11114;50.658;12.704;2022-07-03T08:13:15;96297.78;;;34.80;24.58
21900;BME280;11114;50.658;12.704;2022-07-03T08:15:43;96293.53;;;36.69;23.17
21900;BME280;11114;50.658;12.704;2022-07-03T08:18:10;96284.28;;;37.38;22.28
21900;BME280;11114;50.658;12.704;2022-07-03T08:20:37;96282.13;;;37.69;22.33
21900;BME280;11114;50.658;12.704;2022-07-03T08:23:05;96285.47;;;37.66;22.08
21900;BME280;11114;50.658;12.704;2022-07-03T08:25:32;96299.72;;;36.36;22.16
21900;BME280;11114;50.658;12.704;2022-07-03T08:27:59;96291.47;;;36.11;23.41
21900;BME280;11114;50.658;12.704;2022-07-03T08:30:26;96281.72;;;36.65;23.33
21900;BME280;11114;50.658;12.704;2022-07-03T08:32:54;96280.09;;;37.32;23.62
21900;BME280;11114;50.658;12.704;2022-07-03T08:35:22;96283.44;;;37.54;22.69
21900;BME280;11114;50.658;12.704;2022-07-03T08:37:49;96288.03;;;34.03;25.06
21900;BME280;11114;50.658;12.704;2022-07-03T08:40:18;96285.19;;;34.62;23.93
21900;BME280;11114;50.658;12.704;2022-07-03T08:42:47;96278.63;;;35.12;24.34
21900;BME280;11114;50.658;12.704;2022-07-03T08:45:18;96275.38;;;35.53;23.85
21900;BME280;11114;50.658;12.704;2022-07-03T08:47:47;96278.28;;;35.35;23.55
21900;BME280;11114;50.658;12.704;2022-07-03T08:50:16;96272.81;;;35.05;24.72
21900;BME280;11114;50.658;12.704;2022-07-03T08:52:45;96285.78;;;35.38;24.12
21900;BME280;11114;50.658;12.704;2022-07-03T08:55:14;96277.66;;;35.38;24.39
21900;BME280;11114;50.658;12.704;2022-07-03T08:57:43;96268.75;;;35.68;23.80
21900;BME280;11114;50.658;12.704;2022-07-03T09:00:14;96266.97;;;35.41;23.92
21900;BME280;11114;50.658;12.704;2022-07-03T09:02:44;96266.28;;;35.06;23.96
21900;BME280;11114;50.658;12.704;2022-07-03T09:05:13;96271.06;;;34.87;24.73
21900;BME280;11114;50.658;12.704;2022-07-03T09:07:45;96263.47;;;35.19;24.02
21900;BME280;11114;50.658;12.704;2022-07-03T09:10:14;96273.13;;;35.25;23.35
21900;BME280;11114;50.658;12.704;2022-07-03T09:12:43;96268.25;;;35.14;23.68
21900;BME280;11114;50.658;12.704;2022-07-03T09:15:11;96267.19;;;35.23;24.49
21900;BME280;11114;50.658;12.704;2022-07-03T09:17:38;96264.06;;;34.94;24.46
21900;BME280;11114;50.658;12.704;2022-07-03T09:20:06;96256.16;;;34.84;24.00
21900;BME280;11114;50.658;12.704;2022-07-03T09:22:35;96256.06;;;34.89;25.00
21900;BME280;11114;50.658;12.704;2022-07-03T09:25:07;96259.63;;;34.76;24.59
21900;BME280;11114;50.658;12.704;2022-07-03T09:27:36;96245.78;;;34.16;24.99
21900;BME280;11114;50.658;12.704;2022-07-03T09:30:05;96250.50;;;34.10;25.45
21900;BME280;11114;50.658;12.704;2022-07-03T09:32:41;96249.91;;;34.27;25.62
21900;BME280;11114;50.658;12.704;2022-07-03T09:35:25;96249.50;;;33.93;26.04
21900;BME280;11114;50.658;12.704;2022-07-03T09:37:55;96247.13;;;33.78;25.83
21900;BME280;11114;50.658;12.704;2022-07-03T09:43:12;96256.94;;;33.74;25.95
21900;BME280;11114;50.658;12.704;2022-07-03T09:45:50;96254.34;;;33.82;24.50
21900;BME280;11114;50.658;12.704;2022-07-03T09:48:30;96253.69;;;33.13;24.56
21900;BME280;11114;50.658;12.704;2022-07-03T09:53:44;96259.06;;;33.45;25.37
21900;BME280;11114;50.658;12.704;2022-07-03T09:56:11;96258.72;;;33.65;25.50
21900;BME280;11114;50.658;12.704;2022-07-03T09:58:39;96264.09;;;33.52;25.88
21900;BME280;11114;50.658;12.704;2022-07-03T10:01:17;96255.13;;;33.24;25.88
21900;BME280;11114;50.658;12.704;2022-07-03T10:03:47;96264.34;;;33.23;26.92
21900;BME280;11114;50.658;12.704;2022-07-03T10:06:14;96263.88;;;33.35;26.29
21900;BME280;11114;50.658;12.704;2022-07-03T10:08:42;96258.59;;;33.43;26.46
21900;BME280;11114;50.658;12.704;2022-07-03T10:11:10;96256.28;;;33.50;27.58
21900;BME280;11114;50.658;12.704;2022-07-03T10:13:38;96258.84;;;33.87;26.50
21900;BME280;11114;50.658;12.704;2022-07-03T10:16:06;96251.72;;;33.77;24.96
21900;BME280;11114;50.658;12.704;2022-07-03T10:18:39;96254.22;;;33.60;26.18
21900;BME280;11114;50.658;12.704;2022-07-03T10:21:10;96252.31;;;33.88;26.77
21900;BME280;11114;50.658;12.704;2022-07-03T10:23:38;96251.41;;;33.65;26.41
21900;BME280;11114;50.658;12.704;2022-07-03T10:26:11;96245.50;;;33.77;27.60
21900;BME280;11114;50.658;12.704;2022-07-03T10:28:38;96245.91;;;33.70;26.04
21900;BME280;11114;50.658;12.704;2022-07-03T10:31:06;96258.84;;;33.87;26.64
21900;BME280;11114;50.658;12.704;2022-07-03T10:33:34;96245.69;;;33.80;25.86
21900;BME280;11114;50.658;12.704;2022-07-03T10:36:04;96251.31;;;33.84;26.79
21900;BME280;11114;50.658;12.704;2022-07-03T10:38:40;96247.09;;;34.05;25.58
21900;BME280;11114;50.658;12.704;2022-07-03T10:41:40;96244.19;;;33.88;25.83
21900;BME280;11114;50.658;12.704;2022-07-03T10:44:27;96239.56;;;33.88;25.89
21900;BME280;11114;50.658;12.704;2022-07-03T10:50:09;96233.47;;;33.83;25.97
21900;BME280;11114;50.658;12.704;2022-07-03T10:52:38;96237.66;;;33.62;25.82
21900;BME280;11114;50.658;12.704;2022-07-03T10:55:05;96234.16;;;33.75;25.77
21900;BME280;11114;50.658;12.704;2022-07-03T10:57:35;96234.75;;;33.85;25.84
21900;BME280;11114;50.658;12.704;2022-07-03T11:00:05;96234.47;;;33.87;25.83
21900;BME280;11114;50.658;12.704;2022-07-03T11:02:37;96222.31;;;33.84;25.50
21900;BME280;11114;50.658;12.704;2022-07-03T11:08:03;96220.69;;;33.70;25.05
21900;BME280;11114;50.658;12.704;2022-07-03T11:10:33;96220.94;;;33.87;25.22
21900;BME280;11114;50.658;12.704;2022-07-03T11:13:05;96223.41;;;33.97;24.38
21900;BME280;11114;50.658;12.704;2022-07-03T11:15:48;96218.09;;;33.92;24.78
21900;BME280;11114;50.658;12.704;2022-07-03T11:18:27;96210.28;;;33.90;24.27
21900;BME280;11114;50.658;12.704;2022-07-03T11:21:01;96218.28;;;33.95;24.92
21900;BME280;11114;50.658;12.704;2022-07-03T11:23:41;96209.38;;;33.95;24.50
21900;BME280;11114;50.658;12.704;2022-07-03T11:33:56;96199.63;;;34.42;24.62
21900;BME280;11114;50.658;12.704;2022-07-03T11:36:30;96191.69;;;34.24;25.30
21900;BME280;11114;50.658;12.704;2022-07-03T11:41:41;96191.09;;;34.14;27.19
21900;BME280;11114;50.658;12.704;2022-07-03T11:44:10;96195.88;;;34.30;25.87
21900;BME280;11114;50.658;12.704;2022-07-03T11:46:40;96190.94;;;34.32;25.55
21900;BME280;11114;50.658;12.704;2022-07-03T11:49:21;96192.81;;;34.45;26.08
21900;BME280;11114;50.658;12.704;2022-07-03T11:51:57;96193.53;;;34.37;25.69
21900;BME280;11114;50.658;12.704;2022-07-03T11:54:24;96183.34;;;34.56;26.00
21900;BME280;11114;50.658;12.704;2022-07-03T11:56:53;96186.19;;;34.73;25.93
21900;BME280;11114;50.658;12.704;2022-07-03T11:59:27;96175.78;;;34.88;25.39
21900;BME280;11114;50.658;12.704;2022-07-03T12:02:01;96168.25;;;35.07;25.48
21900;BME280;11114;50.658;12.704;2022-07-03T12:04:31;96172.25;;;35.10;25.25
21900;BME280;11114;50.658;12.704;2022-07-03T12:07:00;96165.69;;;34.89;26.62
21900;BME280;11114;50.658;12.704;2022-07-03T12:09:59;96167.63;;;34.66;24.44
21900;BME280;11114;50.658;12.704;2022-07-03T12:12:39;96170.81;;;34.46;25.71
21900;BME280;11114;50.658;12.704;2022-07-03T12:15:07;96166.88;;;34.52;24.74
21900;BME280;11114;50.658;12.704;2022-07-03T12:17:34;96161.75;;;34.51;24.69
21900;BME280;11114;50.658;12.704;2022-07-03T12:20:01;96166.03;;;33.95;24.86
21900;BME280;11114;50.658;12.704;2022-07-03T12:22:29;96153.19;;;33.87;25.56
21900;BME280;11114;50.658;12.704;2022-07-03T12:25:08;96156.97;;;33.99;26.12
21900;BME280;11114;50.658;12.704;2022-07-03T12:27:44;96157.72;;;34.27;25.67
21900;BME280;11114;50.658;12.704;2022-07-03T12:30:21;96150.06;;;34.07;25.63
21900;BME280;11114;50.658;12.704;2022-07-03T12:32:54;96155.81;;;33.78;25.76
21900;BME280;11114;50.658;12.704;2022-07-03T12:35:22;96151.41;;;33.69;25.63
21900;BME280;11114;50.658;12.704;2022-07-03T12:37:49;96159.09;;;33.49;26.30
21900;BME280;11114;50.658;12.704;2022-07-03T12:40:15;96151.59;;;33.46;26.33
21900;BME280;11114;50.658;12.704;2022-07-03T12:42:47;96149.81;;;32.96;26.23
21900;BME280;11114;50.658;12.704;2022-07-03T12:45:19;96152.75;;;32.99;26.04
21900;BME280;11114;50.658;12.704;2022-07-03T12:48:01;96156.44;;;32.21;26.51
21900;BME280;11114;50.658;12.704;2022-07-03T12:53:25;96148.81;;;32.42;29.21
21900;BME280;11114;50.658;12.704;2022-07-03T12:55:54;96132.41;;;32.70;27.84
21900;BME280;11114;50.658;12.704;2022-07-03T12:58:25;96138.66;;;32.70;27.85
21900;BME280;11114;50.658;12.704;2022-07-03T13:01:32;96149.25;;;32.67;27.28
21900;BME280;11114;50.658;12.704;2022-07-03T13:04:05;96142.03;;;32.63;27.46
21900;BME280;11114;50.658;12.704;2022-07-03T13:06:35;96142.63;;;32.60;26.69
21900;BME280;11114;50.658;12.704;2022-07-03T13:09:04;96127.91;;;32.66;26.94
21900;BME280;11114;50.658;12.704;2022-07-03T13:11:33;96129.88;;;32.92;27.14
21900;BME280;11114;50.658;12.704;2022-07-03T13:14:12;96134.50;;;33.05;26.92
21900;BME280;11114;50.658;12.704;2022-07-03T13:16:47;96125.19;;;32.97;25.24
21900;BME280;11114;50.658;12.704;2022-07-03T13:19:19;96117.00;;;32.70;26.23
21900;BME280;11114;50.658;12.704;2022-07-03T13:21:47;96118.94;;;32.52;25.63
21900;BME280;11114;50.658;12.704;2022-07-03T13:24:16;96124.59;;;32.37;25.24
21900;BME280;11114;50.658;12.704;2022-07-03T13:26:44;96120.34;;;32.31;26.07
21900;BME280;11114;50.658;12.704;2022-07-03T13:29:18;96116.84;;;32.30;25.79
21900;BME280;11114;50.658;12.704;2022-07-03T13:31:45;96123.22;;;32.21;26.52
21900;BME280;11114;50.658;12.704;2022-07-03T13:34:13;96126.91;;;31.70;26.86
21900;BME280;11114;50.658;12.704;2022-07-03T13:36:40;96117.97;;;31.27;27.38
21900;BME280;11114;50.658;12.704;2022-07-03T13:39:06;96114.63;;;31.35;26.13
21900;BME280;11114;50.658;12.704;2022-07-03T13:41:36;96109.25;;;31.59;26.54
21900;BME280;11114;50.658;12.704;2022-07-03T13:44:03;96108.53;;;31.90;26.11
21900;BME280;11114;50.658;12.704;2022-07-03T13:46:30;96108.44;;;31.95;25.75
21900;BME280;11114;50.658;12.704;2022-07-03T13:48:57;96106.72;;;31.85;26.25
21900;BME280;11114;50.658;12.704;2022-07-03T13:51:23;96105.47;;;31.96;27.05
21900;BME280;11114;50.658;12.704;2022-07-03T13:53:50;96111.59;;;32.02;26.07
21900;BME280;11114;50.658;12.704;2022-07-03T13:56:18;96102.81;;;31.91;26.08
21900;BME280;11114;50.658;12.704;2022-07-03T13:58:45;96104.00;;;31.67;25.79
21900;BME280;11114;50.658;12.704;2022-07-03T14:01:18;96099.75;;;31.61;25.94
21900;BME280;11114;50.658;12.704;2022-07-03T14:03:45;96097.50;;;31.68;25.13
21900;BME280;11114;50.658;12.704;2022-07-03T14:06:13;96100.06;;;31.78;25.65